sensor_id;sensor_type;location;lat;lon;timestamp;P1;durP1;ratioP1;P2;durP2;ratioP2
61785;SDS011;47692;53.714;11.372;2023-03-01T00:01:01;4.10;;;2.55;;
61785;SDS011;47692;53.714;11.372;2023-03-01T00:03:31;3.85;;;2.72;;
61785;SDS011;47692;53.714;11.372;2023-03-01T00:05:57;5.70;;;2.42;;
61785;SDS011;47692;53.714;11.372;2023-03-01T00:08:22;5.82;;;2.78;;
61785;SDS011;47692;53.714;11.372;2023-03-01T00:10:47;5.20;;;2.97;;
61785;SDS011;47692;53.714;11.372;2023-03-01T00:13:13;3.40;;;2.60;;
61785;SDS011;47692;53.714;11.372;2023-03-01T00:15:39;4.82;;;2.65;;
61785;SDS011;47692;53.714;11.372;2023-03-01T00:18:06;5.07;;;2.83;;
61785;SDS011;47692;53.714;11.372;2023-03-01T00:20:31;4.95;;;2.90;;
61785;SDS011;47692;53.714;11.372;2023-03-01T00:22:57;5.00;;;2.60;;
61785;SDS011;47692;53.714;11.372;2023-03-01T00:25:22;4.65;;;2.60;;
61785;SDS011;47692;53.714;11.372;2023-03-01T00:27:47;4.30;;;2.75;;
61785;SDS011;47692;53.714;11.372;2023-03-01T00:30:14;4.53;;;2.65;;
61785;SDS011;47692;53.714;11.372;2023-03-01T00:32:39;5.22;;;2.78;;
61785;SDS011;47692;53.714;11.372;2023-03-01T00:35:04;4.85;;;2.80;;
61785;SDS011;47692;53.714;11.372;2023-03-01T00:37:30;3.80;;;2.50;;
61785;SDS011;47692;53.714;11.372;2023-03-01T00:39:56;4.60;;;2.55;;
61785;SDS011;47692;53.714;11.372;2023-03-01T00:42:21;4.60;;;3.05;;
61785;SDS011;47692;53.714;11.372;2023-03-01T00:44:47;3.70;;;2.63;;
61785;SDS011;47692;53.714;11.372;2023-03-01T00:47:12;5.70;;;3.08;;
61785;SDS011;47692;53.714;11.372;2023-03-01T00:49:38;5.82;;;2.97;;
61785;SDS011;47692;53.714;11.372;2023-03-01T00:52:04;6.97;;;2.55;;
61785;SDS011;47692;53.714;11.372;2023-03-01T00:54:29;5.00;;;3.08;;
61785;SDS011;47692;53.714;11.372;2023-03-01T00:56:55;4.13;;;2.58;;
61785;SDS011;47692;53.714;11.372;2023-03-01T00:59:20;5.85;;;3.00;;
61785;SDS011;47692;53.714;11.372;2023-03-01T01:01:45;5.95;;;2.60;;
61785;SDS011;47692;53.714;11.372;2023-03-01T01:04:11;6.65;;;2.92;;
61785;SDS011;47692;53.714;11.372;2023-03-01T01:06:39;4.90;;;2.65;;
61785;SDS011;47692;53.714;11.372;2023-03-01T01:09:07;5.88;;;3.15;;
61785;SDS011;47692;53.714;11.372;2023-03-01T01:11:33;6.25;;;3.28;;
61785;SDS011;47692;53.714;11.372;2023-03-01T01:14:03;4.95;;;2.47;;
61785;SDS011;47692;53.714;11.372;2023-03-01T01:16:28;6.13;;;3.15;;
61785;SDS011;47692;53.714;11.372;2023-03-01T01:18:54;4.28;;;2.58;;
61785;SDS011;47692;53.714;11.372;2023-03-01T01:21:21;8.43;;;2.92;;
61785;SDS011;47692;53.714;11.372;2023-03-01T01:23:48;4.63;;;2.30;;
61785;SDS011;47692;53.714;11.372;2023-03-01T01:26:16;4.65;;;3.00;;
61785;SDS011;47692;53.714;11.372;2023-03-01T01:28:43;5.10;;;3.30;;
61785;SDS011;47692;53.714;11.372;2023-03-01T01:31:09;4.88;;;2.97;;
61785;SDS011;47692;53.714;11.372;2023-03-01T01:33:35;5.20;;;2.53;;
61785;SDS011;47692;53.714;11.372;2023-03-01T01:36:02;5.70;;;2.90;;
61785;SDS011;47692;53.714;11.372;2023-03-01T01:38:28;3.95;;;2.45;;
61785;SDS011;47692;53.714;11.372;2023-03-01T01:40:53;4.40;;;2.70;;
61785;SDS011;47692;53.714;11.372;2023-03-01T01:43:23;5.28;;;3.00;;
61785;SDS011;47692;53.714;11.372;2023-03-01T01:45:52;4.40;;;2.90;;
61785;SDS011;47692;53.714;11.372;2023-03-01T01:48:21;3.90;;;2.55;;
61785;SDS011;47692;53.714;11.372;2023-03-01T01:50:55;5.05;;;2.75;;
61785;SDS011;47692;53.714;11.372;2023-03-01T01:53:24;3.47;;;2.45;;
61785;SDS011;47692;53.714;11.372;2023-03-01T01:55:54;4.45;;;2.60;;
61785;SDS011;47692;53.714;11.372;2023-03-01T01:58:23;5.90;;;2.70;;
61785;SDS011;47692;53.714;11.372;2023-03-01T02:00:51;4.50;;;2.78;;
61785;SDS011;47692;53.714;11.372;2023-03-01T02:03:28;3.85;;;2.80;;
61785;SDS011;47692;53.714;11.372;2023-03-01T02:06:03;6.85;;;3.13;;
61785;SDS011;47692;53.714;11.372;2023-03-01T02:08:33;4.68;;;2.67;;
61785;SDS011;47692;53.714;11.372;2023-03-01T02:11:02;4.85;;;2.80;;
61785;SDS011;47692;53.714;11.372;2023-03-01T02:13:29;3.85;;;2.42;;
61785;SDS011;47692;53.714;11.372;2023-03-01T02:15:56;4.28;;;2.70;;
61785;SDS011;47692;53.714;11.372;2023-03-01T02:18:22;5.90;;;3.05;;
61785;SDS011;47692;53.714;11.372;2023-03-01T02:23:29;5.63;;;2.80;;
61785;SDS011;47692;53.714;11.372;2023-03-01T02:25:57;6.35;;;3.30;;
61785;SDS011;47692;53.714;11.372;2023-03-01T02:31:07;4.15;;;2.50;;
61785;SDS011;47692;53.714;11.372;2023-03-01T02:33:52;4.38;;;2.50;;
61785;SDS011;47692;53.714;11.372;2023-03-01T02:36:25;4.55;;;2.63;;
61785;SDS011;47692;53.714;11.372;2023-03-01T02:38:55;6.15;;;2.70;;
61785;SDS011;47692;53.714;11.372;2023-03-01T02:41:23;5.00;;;3.10;;
61785;SDS011;47692;53.714;11.372;2023-03-01T02:43:51;6.28;;;3.05;;
61785;SDS011;47692;53.714;11.372;2023-03-01T02:46:18;5.95;;;2.92;;
61785;SDS011;47692;53.714;11.372;2023-03-01T02:51:31;4.55;;;2.75;;
61785;SDS011;47692;53.714;11.372;2023-03-01T02:54:18;5.82;;;3.15;;
61785;SDS011;47692;53.714;11.372;2023-03-01T02:56:52;4.32;;;2.70;;
61785;SDS011;47692;53.714;11.372;2023-03-01T02:59:19;4.00;;;2.53;;
61785;SDS011;47692;53.714;11.372;2023-03-01T03:01:46;5.80;;;2.70;;
61785;SDS011;47692;53.714;11.372;2023-03-01T03:04:15;4.88;;;2.80;;
61785;SDS011;47692;53.714;11.372;2023-03-01T03:06:45;7.18;;;3.17;;
61785;SDS011;47692;53.714;11.372;2023-03-01T03:09:12;4.95;;;2.60;;
61785;SDS011;47692;53.714;11.372;2023-03-01T03:11:38;4.43;;;2.53;;
61785;SDS011;47692;53.714;11.372;2023-03-01T03:14:05;4.03;;;2.50;;
61785;SDS011;47692;53.714;11.372;2023-03-01T03:16:38;5.63;;;2.53;;
61785;SDS011;47692;53.714;11.372;2023-03-01T03:19:05;5.18;;;2.95;;
61785;SDS011;47692;53.714;11.372;2023-03-01T03:21:31;4.65;;;2.30;;
61785;SDS011;47692;53.714;11.372;2023-03-01T03:23:57;3.65;;;2.33;;
61785;SDS011;47692;53.714;11.372;2023-03-01T03:26:23;4.55;;;2.72;;
61785;SDS011;47692;53.714;11.372;2023-03-01T03:28:49;5.93;;;2.85;;
61785;SDS011;47692;53.714;11.372;2023-03-01T03:31:14;5.00;;;2.80;;
61785;SDS011;47692;53.714;11.372;2023-03-01T03:33:40;5.00;;;3.30;;
61785;SDS011;47692;53.714;11.372;2023-03-01T03:36:05;5.10;;;3.30;;
61785;SDS011;47692;53.714;11.372;2023-03-01T03:38:31;5.20;;;3.03;;
61785;SDS011;47692;53.714;11.372;2023-03-01T03:41:04;7.95;;;3.20;;
61785;SDS011;47692;53.714;11.372;2023-03-01T03:43:32;4.25;;;2.40;;
61785;SDS011;47692;53.714;11.372;2023-03-01T03:45:59;4.20;;;2.60;;
61785;SDS011;47692;53.714;11.372;2023-03-01T03:48:25;6.85;;;3.30;;
61785;SDS011;47692;53.714;11.372;2023-03-01T03:50:54;4.88;;;2.88;;
61785;SDS011;47692;53.714;11.372;2023-03-01T03:53:21;4.35;;;2.70;;
61785;SDS011;47692;53.714;11.372;2023-03-01T03:55:48;4.78;;;2.58;;
61785;SDS011;47692;53.714;11.372;2023-03-01T03:58:16;5.32;;;3.58;;
61785;SDS011;47692;53.714;11.372;2023-03-01T04:00:44;6.00;;;3.08;;
61785;SDS011;47692;53.714;11.372;2023-03-01T04:03:12;6.22;;;3.00;;
61785;SDS011;47692;53.714;11.372;2023-03-01T04:05:40;6.07;;;3.05;;
61785;SDS011;47692;53.714;11.372;2023-03-01T04:08:06;5.32;;;2.83;;
61785;SDS011;47692;53.714;11.372;2023-03-01T04:10:34;5.93;;;3.53;;
61785;SDS011;47692;53.714;11.372;2023-03-01T04:13:04;8.40;;;3.35;;
61785;SDS011;47692;53.714;11.372;2023-03-01T04:15:30;5.80;;;3.33;;
61785;SDS011;47692;53.714;11.372;2023-03-01T04:17:57;5.32;;;3.10;;
61785;SDS011;47692;53.714;11.372;2023-03-01T04:20:24;4.97;;;2.60;;
61785;SDS011;47692;53.714;11.372;2023-03-01T04:22:58;4.70;;;2.70;;
61785;SDS011;47692;53.714;11.372;2023-03-01T04:25:23;5.40;;;3.00;;
61785;SDS011;47692;53.714;11.372;2023-03-01T04:27:49;5.70;;;3.10;;
61785;SDS011;47692;53.714;11.372;2023-03-01T04:30:15;6.20;;;3.50;;
61785;SDS011;47692;53.714;11.372;2023-03-01T04:32:40;6.07;;;2.83;;
61785;SDS011;47692;53.714;11.372;2023-03-01T04:35:06;5.18;;;2.88;;
61785;SDS011;47692;53.714;11.372;2023-03-01T04:37:32;5.97;;;3.13;;
61785;SDS011;47692;53.714;11.372;2023-03-01T04:39:57;5.32;;;2.85;;
61785;SDS011;47692;53.714;11.372;2023-03-01T04:42:22;4.25;;;2.80;;
61785;SDS011;47692;53.714;11.372;2023-03-01T04:44:48;4.70;;;2.53;;
61785;SDS011;47692;53.714;11.372;2023-03-01T04:47:16;4.88;;;2.65;;
61785;SDS011;47692;53.714;11.372;2023-03-01T04:49:41;6.32;;;3.00;;
61785;SDS011;47692;53.714;11.372;2023-03-01T04:52:07;4.72;;;3.08;;
61785;SDS011;47692;53.714;11.372;2023-03-01T04:54:33;5.10;;;2.72;;
61785;SDS011;47692;53.714;11.372;2023-03-01T04:57:00;6.75;;;3.28;;
61785;SDS011;47692;53.714;11.372;2023-03-01T04:59:26;4.32;;;2.97;;
61785;SDS011;47692;53.714;11.372;2023-03-01T05:01:52;4.35;;;2.88;;
61785;SDS011;47692;53.714;11.372;2023-03-01T05:04:24;4.32;;;2.58;;
61785;SDS011;47692;53.714;11.372;2023-03-01T05:06:50;4.43;;;2.97;;
61785;SDS011;47692;53.714;11.372;2023-03-01T05:09:16;4.07;;;2.60;;
61785;SDS011;47692;53.714;11.372;2023-03-01T05:11:41;5.15;;;2.50;;
61785;SDS011;47692;53.714;11.372;2023-03-01T05:14:07;6.43;;;3.17;;
61785;SDS011;47692;53.714;11.372;2023-03-01T05:16:34;7.57;;;3.00;;
61785;SDS011;47692;53.714;11.372;2023-03-01T05:19:01;4.35;;;3.35;;
61785;SDS011;47692;53.714;11.372;2023-03-01T05:21:36;5.25;;;3.25;;
61785;SDS011;47692;53.714;11.372;2023-03-01T05:24:24;8.00;;;4.25;;
61785;SDS011;47692;53.714;11.372;2023-03-01T05:26:49;9.00;;;4.20;;
61785;SDS011;47692;53.714;11.372;2023-03-01T05:29:16;9.80;;;4.40;;
61785;SDS011;47692;53.714;11.372;2023-03-01T05:31:42;11.18;;;5.38;;
61785;SDS011;47692;53.714;11.372;2023-03-01T05:34:08;10.77;;;4.68;;
61785;SDS011;47692;53.714;11.372;2023-03-01T05:36:33;9.13;;;4.38;;
61785;SDS011;47692;53.714;11.372;2023-03-01T05:38:59;10.95;;;4.50;;
61785;SDS011;47692;53.714;11.372;2023-03-01T05:41:24;7.97;;;4.47;;
61785;SDS011;47692;53.714;11.372;2023-03-01T05:43:50;7.38;;;3.78;;
61785;SDS011;47692;53.714;11.372;2023-03-01T05:46:15;7.40;;;3.60;;
61785;SDS011;47692;53.714;11.372;2023-03-01T05:48:40;6.50;;;3.97;;
61785;SDS011;47692;53.714;11.372;2023-03-01T05:51:06;7.75;;;3.67;;
61785;SDS011;47692;53.714;11.372;2023-03-01T05:53:31;7.82;;;3.83;;
61785;SDS011;47692;53.714;11.372;2023-03-01T05:55:56;6.15;;;3.40;;
61785;SDS011;47692;53.714;11.372;2023-03-01T05:58:22;4.63;;;2.92;;
61785;SDS011;47692;53.714;11.372;2023-03-01T06:00:47;6.00;;;3.00;;
61785;SDS011;47692;53.714;11.372;2023-03-01T06:03:14;7.18;;;3.25;;
61785;SDS011;47692;53.714;11.372;2023-03-01T06:05:41;6.22;;;3.25;;
61785;SDS011;47692;53.714;11.372;2023-03-01T06:08:06;7.68;;;3.55;;
61785;SDS011;47692;53.714;11.372;2023-03-01T06:10:32;6.85;;;3.58;;
61785;SDS011;47692;53.714;11.372;2023-03-01T06:12:57;7.30;;;3.88;;
61785;SDS011;47692;53.714;11.372;2023-03-01T06:15:23;9.85;;;4.00;;
61785;SDS011;47692;53.714;11.372;2023-03-01T06:17:50;12.07;;;4.65;;
61785;SDS011;47692;53.714;11.372;2023-03-01T06:20:17;9.90;;;4.55;;
61785;SDS011;47692;53.714;11.372;2023-03-01T06:22:44;12.82;;;5.90;;
61785;SDS011;47692;53.714;11.372;2023-03-01T06:25:12;9.43;;;5.15;;
61785;SDS011;47692;53.714;11.372;2023-03-01T06:27:39;8.43;;;4.93;;
61785;SDS011;47692;53.714;11.372;2023-03-01T06:30:06;8.98;;;4.80;;
61785;SDS011;47692;53.714;11.372;2023-03-01T06:32:32;9.98;;;4.38;;
61785;SDS011;47692;53.714;11.372;2023-03-01T06:34:58;7.65;;;4.25;;
61785;SDS011;47692;53.714;11.372;2023-03-01T06:37:24;9.48;;;4.28;;
61785;SDS011;47692;53.714;11.372;2023-03-01T06:39:50;6.78;;;4.43;;
61785;SDS011;47692;53.714;11.372;2023-03-01T06:42:15;7.30;;;4.72;;
61785;SDS011;47692;53.714;11.372;2023-03-01T06:44:41;8.05;;;4.20;;
61785;SDS011;47692;53.714;11.372;2023-03-01T06:47:07;7.93;;;3.75;;
61785;SDS011;47692;53.714;11.372;2023-03-01T06:49:32;7.68;;;3.90;;
61785;SDS011;47692;53.714;11.372;2023-03-01T06:51:57;6.90;;;4.20;;
61785;SDS011;47692;53.714;11.372;2023-03-01T06:54:23;7.80;;;4.07;;
61785;SDS011;47692;53.714;11.372;2023-03-01T06:56:49;7.72;;;4.05;;
61785;SDS011;47692;53.714;11.372;2023-03-01T06:59:15;9.82;;;4.95;;
61785;SDS011;47692;53.714;11.372;2023-03-01T07:01:41;8.88;;;5.15;;
61785;SDS011;47692;53.714;11.372;2023-03-01T07:04:06;7.90;;;4.38;;
61785;SDS011;47692;53.714;11.372;2023-03-01T07:06:31;11.27;;;4.60;;
61785;SDS011;47692;53.714;11.372;2023-03-01T07:08:57;11.13;;;5.82;;
61785;SDS011;47692;53.714;11.372;2023-03-01T07:11:22;12.45;;;5.50;;
61785;SDS011;47692;53.714;11.372;2023-03-01T07:13:48;14.18;;;7.10;;
61785;SDS011;47692;53.714;11.372;2023-03-01T07:16:13;18.13;;;7.55;;
61785;SDS011;47692;53.714;11.372;2023-03-01T07:18:39;13.45;;;6.22;;
61785;SDS011;47692;53.714;11.372;2023-03-01T07:21:08;16.23;;;7.50;;
61785;SDS011;47692;53.714;11.372;2023-03-01T07:23:37;16.58;;;7.90;;
61785;SDS011;47692;53.714;11.372;2023-03-01T07:26:02;15.73;;;7.28;;
61785;SDS011;47692;53.714;11.372;2023-03-01T07:28:28;14.73;;;6.40;;
61785;SDS011;47692;53.714;11.372;2023-03-01T07:30:54;18.80;;;8.80;;
61785;SDS011;47692;53.714;11.372;2023-03-01T07:33:19;20.70;;;9.25;;
61785;SDS011;47692;53.714;11.372;2023-03-01T07:35:44;20.10;;;8.32;;
61785;SDS011;47692;53.714;11.372;2023-03-01T07:38:10;20.88;;;9.40;;
61785;SDS011;47692;53.714;11.372;2023-03-01T07:40:35;18.65;;;8.45;;
61785;SDS011;47692;53.714;11.372;2023-03-01T07:43:01;20.52;;;8.73;;
61785;SDS011;47692;53.714;11.372;2023-03-01T07:45:27;20.88;;;9.35;;
61785;SDS011;47692;53.714;11.372;2023-03-01T07:47:53;22.10;;;10.10;;
61785;SDS011;47692;53.714;11.372;2023-03-01T07:50:19;22.52;;;9.18;;
61785;SDS011;47692;53.714;11.372;2023-03-01T07:52:45;21.63;;;9.68;;
61785;SDS011;47692;53.714;11.372;2023-03-01T07:55:14;25.20;;;9.73;;
61785;SDS011;47692;53.714;11.372;2023-03-01T07:57:40;22.33;;;9.70;;
61785;SDS011;47692;53.714;11.372;2023-03-01T08:00:06;25.13;;;10.65;;
61785;SDS011;47692;53.714;11.372;2023-03-01T08:02:32;23.38;;;9.93;;
61785;SDS011;47692;53.714;11.372;2023-03-01T08:04:58;21.02;;;9.45;;
61785;SDS011;47692;53.714;11.372;2023-03-01T08:07:23;21.35;;;9.43;;
61785;SDS011;47692;53.714;11.372;2023-03-01T08:09:48;19.45;;;8.27;;
61785;SDS011;47692;53.714;11.372;2023-03-01T08:12:14;20.80;;;9.68;;
61785;SDS011;47692;53.714;11.372;2023-03-01T08:14:41;21.73;;;8.85;;
61785;SDS011;47692;53.714;11.372;2023-03-01T08:17:06;21.48;;;10.13;;
61785;SDS011;47692;53.714;11.372;2023-03-01T08:19:31;25.70;;;10.02;;
61785;SDS011;47692;53.714;11.372;2023-03-01T08:21:58;22.98;;;9.93;;
61785;SDS011;47692;53.714;11.372;2023-03-01T08:24:24;20.08;;;9.50;;
61785;SDS011;47692;53.714;11.372;2023-03-01T08:26:50;24.52;;;9.98;;
61785;SDS011;47692;53.714;11.372;2023-03-01T08:29:15;18.08;;;8.55;;
61785;SDS011;47692;53.714;11.372;2023-03-01T08:31:41;25.10;;;9.65;;
61785;SDS011;47692;53.714;11.372;2023-03-01T08:34:10;23.08;;;9.68;;
61785;SDS011;47692;53.714;11.372;2023-03-01T08:36:39;23.95;;;10.35;;
61785;SDS011;47692;53.714;11.372;2023-03-01T08:39:06;23.58;;;9.77;;
61785;SDS011;47692;53.714;11.372;2023-03-01T08:41:32;21.45;;;9.50;;
61785;SDS011;47692;53.714;11.372;2023-03-01T08:43:58;23.00;;;10.55;;
61785;SDS011;47692;53.714;11.372;2023-03-01T08:46:27;19.17;;;9.27;;
61785;SDS011;47692;53.714;11.372;2023-03-01T08:49:04;19.60;;;9.20;;
61785;SDS011;47692;53.714;11.372;2023-03-01T08:51:30;25.05;;;11.20;;
61785;SDS011;47692;53.714;11.372;2023-03-01T08:53:57;25.42;;;9.93;;
61785;SDS011;47692;53.714;11.372;2023-03-01T08:56:23;22.92;;;9.65;;
61785;SDS011;47692;53.714;11.372;2023-03-01T08:58:48;22.88;;;9.70;;
61785;SDS011;47692;53.714;11.372;2023-03-01T09:01:15;21.58;;;11.05;;
61785;SDS011;47692;53.714;11.372;2023-03-01T09:03:42;27.50;;;10.95;;
61785;SDS011;47692;53.714;11.372;2023-03-01T09:06:08;25.67;;;10.05;;
61785;SDS011;47692;53.714;11.372;2023-03-01T09:08:34;21.92;;;10.68;;
61785;SDS011;47692;53.714;11.372;2023-03-01T09:11:02;21.80;;;10.73;;
61785;SDS011;47692;53.714;11.372;2023-03-01T09:13:28;23.33;;;11.18;;
61785;SDS011;47692;53.714;11.372;2023-03-01T09:15:56;27.27;;;11.70;;
61785;SDS011;47692;53.714;11.372;2023-03-01T09:18:21;23.67;;;10.63;;
61785;SDS011;47692;53.714;11.372;2023-03-01T09:20:47;23.23;;;9.93;;
61785;SDS011;47692;53.714;11.372;2023-03-01T09:23:12;22.75;;;10.27;;
61785;SDS011;47692;53.714;11.372;2023-03-01T09:25:37;24.25;;;9.57;;
61785;SDS011;47692;53.714;11.372;2023-03-01T09:28:03;26.85;;;11.32;;
61785;SDS011;47692;53.714;11.372;2023-03-01T09:30:28;22.70;;;10.10;;
61785;SDS011;47692;53.714;11.372;2023-03-01T09:32:55;20.92;;;10.27;;
61785;SDS011;47692;53.714;11.372;2023-03-01T09:35:21;27.45;;;11.45;;
61785;SDS011;47692;53.714;11.372;2023-03-01T09:37:47;24.13;;;9.63;;
61785;SDS011;47692;53.714;11.372;2023-03-01T09:40:15;21.98;;;11.23;;
61785;SDS011;47692;53.714;11.372;2023-03-01T09:42:48;21.20;;;10.18;;
61785;SDS011;47692;53.714;11.372;2023-03-01T09:45:25;22.73;;;10.70;;
61785;SDS011;47692;53.714;11.372;2023-03-01T09:48:06;23.98;;;11.45;;
61785;SDS011;47692;53.714;11.372;2023-03-01T09:50:41;23.48;;;10.80;;
61785;SDS011;47692;53.714;11.372;2023-03-01T09:53:13;20.45;;;9.48;;
61785;SDS011;47692;53.714;11.372;2023-03-01T09:55:43;25.30;;;10.07;;
61785;SDS011;47692;53.714;11.372;2023-03-01T10:00:59;22.10;;;10.70;;
61785;SDS011;47692;53.714;11.372;2023-03-01T10:03:34;25.55;;;11.30;;
61785;SDS011;47692;53.714;11.372;2023-03-01T10:08:49;22.02;;;10.55;;
61785;SDS011;47692;53.714;11.372;2023-03-01T10:11:30;25.88;;;12.02;;
61785;SDS011;47692;53.714;11.372;2023-03-01T10:14:01;23.63;;;11.20;;
61785;SDS011;47692;53.714;11.372;2023-03-01T10:19:11;25.90;;;10.52;;
61785;SDS011;47692;53.714;11.372;2023-03-01T10:21:41;20.42;;;10.35;;
61785;SDS011;47692;53.714;11.372;2023-03-01T10:24:18;20.90;;;10.23;;
61785;SDS011;47692;53.714;11.372;2023-03-01T10:26:56;21.75;;;10.15;;
61785;SDS011;47692;53.714;11.372;2023-03-01T10:29:25;21.30;;;10.50;;
61785;SDS011;47692;53.714;11.372;2023-03-01T10:31:59;22.40;;;10.68;;
61785;SDS011;47692;53.714;11.372;2023-03-01T10:34:28;18.02;;;9.68;;
61785;SDS011;47692;53.714;11.372;2023-03-01T10:39:57;17.83;;;8.98;;
61785;SDS011;47692;53.714;11.372;2023-03-01T10:44:53;21.58;;;9.25;;
61785;SDS011;47692;53.714;11.372;2023-03-01T10:47:20;19.90;;;9.50;;
61785;SDS011;47692;53.714;11.372;2023-03-01T10:50:03;20.65;;;9.38;;
61785;SDS011;47692;53.714;11.372;2023-03-01T10:52:42;20.70;;;9.48;;
61785;SDS011;47692;53.714;11.372;2023-03-01T10:57:50;16.73;;;8.55;;
61785;SDS011;47692;53.714;11.372;2023-03-01T11:00:33;15.45;;;8.07;;
61785;SDS011;47692;53.714;11.372;2023-03-01T11:03:21;16.90;;;7.68;;
61785;SDS011;47692;53.714;11.372;2023-03-01T11:06:38;16.95;;;8.40;;
61785;SDS011;47692;53.714;11.372;2023-03-01T11:08:47;20.00;;;9.60;;
61785;SDS011;47692;53.714;11.372;2023-03-01T11:13:52;18.20;;;8.32;;
61785;SDS011;47692;53.714;11.372;2023-03-01T11:18:58;16.65;;;8.13;;
61785;SDS011;47692;53.714;11.372;2023-03-01T11:24:11;14.10;;;7.93;;
61785;SDS011;47692;53.714;11.372;2023-03-01T11:26:41;13.07;;;6.65;;
61785;SDS011;47692;53.714;11.372;2023-03-01T11:29:17;13.50;;;6.72;;
61785;SDS011;47692;53.714;11.372;2023-03-01T11:31:56;12.60;;;6.50;;
61785;SDS011;47692;53.714;11.372;2023-03-01T11:34:47;14.90;;;7.40;;
61785;SDS011;47692;53.714;11.372;2023-03-01T11:37:16;12.10;;;6.53;;
61785;SDS011;47692;53.714;11.372;2023-03-01T11:42:28;11.25;;;5.53;;
61785;SDS011;47692;53.714;11.372;2023-03-01T11:45:05;12.90;;;6.05;;
61785;SDS011;47692;53.714;11.372;2023-03-01T11:47:43;11.40;;;6.03;;
61785;SDS011;47692;53.714;11.372;2023-03-01T11:50:24;10.93;;;6.25;;
61785;SDS011;47692;53.714;11.372;2023-03-01T11:56:03;13.07;;;5.88;;
61785;SDS011;47692;53.714;11.372;2023-03-01T12:01:23;10.35;;;5.90;;
61785;SDS011;47692;53.714;11.372;2023-03-01T12:06:27;12.35;;;6.55;;
61785;SDS011;47692;53.714;11.372;2023-03-01T12:14:47;11.32;;;6.18;;
61785;SDS011;47692;53.714;11.372;2023-03-01T12:25:26;14.70;;;7.65;;
61785;SDS011;47692;53.714;11.372;2023-03-01T12:28:15;16.75;;;7.57;;
61785;SDS011;47692;53.714;11.372;2023-03-01T12:33:42;15.05;;;8.52;;
61785;SDS011;47692;53.714;11.372;2023-03-01T12:36:30;15.25;;;8.40;;
61785;SDS011;47692;53.714;11.372;2023-03-01T12:39:10;17.48;;;8.27;;
61785;SDS011;47692;53.714;11.372;2023-03-01T12:44:41;17.10;;;9.20;;
61785;SDS011;47692;53.714;11.372;2023-03-01T12:58:13;18.05;;;10.20;;
61785;SDS011;47692;53.714;11.372;2023-03-01T13:09:04;18.58;;;9.60;;
61785;SDS011;47692;53.714;11.372;2023-03-01T13:11:34;19.23;;;9.93;;
61785;SDS011;47692;53.714;11.372;2023-03-01T13:16:50;20.45;;;9.07;;
61785;SDS011;47692;53.714;11.372;2023-03-01T13:19:20;20.17;;;9.43;;
61785;SDS011;47692;53.714;11.372;2023-03-01T13:21:47;16.63;;;9.48;;
61785;SDS011;47692;53.714;11.372;2023-03-01T13:24:57;15.57;;;9.13;;
61785;SDS011;47692;53.714;11.372;2023-03-01T13:29:48;21.80;;;10.95;;
61785;SDS011;47692;53.714;11.372;2023-03-01T13:32:28;21.30;;;11.05;;
61785;SDS011;47692;53.714;11.372;2023-03-01T13:37:26;21.02;;;11.70;;
61785;SDS011;47692;53.714;11.372;2023-03-01T13:39:55;22.88;;;12.68;;
61785;SDS011;47692;53.714;11.372;2023-03-01T13:42:29;22.90;;;12.48;;
61785;SDS011;47692;53.714;11.372;2023-03-01T13:44:57;25.55;;;12.77;;
61785;SDS011;47692;53.714;11.372;2023-03-01T13:47:23;23.15;;;12.68;;
61785;SDS011;47692;53.714;11.372;2023-03-01T13:49:50;24.10;;;13.55;;
61785;SDS011;47692;53.714;11.372;2023-03-01T13:55:03;23.77;;;12.70;;
61785;SDS011;47692;53.714;11.372;2023-03-01T13:57:35;23.00;;;12.73;;
61785;SDS011;47692;53.714;11.372;2023-03-01T14:00:04;24.50;;;12.02;;
61785;SDS011;47692;53.714;11.372;2023-03-01T14:02:30;27.35;;;13.43;;
61785;SDS011;47692;53.714;11.372;2023-03-01T14:04:59;22.02;;;11.70;;
61785;SDS011;47692;53.714;11.372;2023-03-01T14:07:26;25.08;;;13.00;;
61785;SDS011;47692;53.714;11.372;2023-03-01T14:09:56;22.42;;;11.85;;
61785;SDS011;47692;53.714;11.372;2023-03-01T14:20:11;27.95;;;13.20;;
61785;SDS011;47692;53.714;11.372;2023-03-01T14:22:41;28.90;;;14.07;;
61785;SDS011;47692;53.714;11.372;2023-03-01T14:27:55;35.08;;;14.57;;
61785;SDS011;47692;53.714;11.372;2023-03-01T14:30:27;30.40;;;13.02;;
61785;SDS011;47692;53.714;11.372;2023-03-01T14:33:02;30.38;;;13.82;;
61785;SDS011;47692;53.714;11.372;2023-03-01T14:35:31;35.92;;;14.88;;
61785;SDS011;47692;53.714;11.372;2023-03-01T14:37:59;28.38;;;13.40;;
61785;SDS011;47692;53.714;11.372;2023-03-01T14:40:28;31.65;;;12.88;;
61785;SDS011;47692;53.714;11.372;2023-03-01T14:42:57;29.42;;;12.88;;
61785;SDS011;47692;53.714;11.372;2023-03-01T14:45:26;31.20;;;14.15;;
61785;SDS011;47692;53.714;11.372;2023-03-01T14:47:53;32.30;;;13.88;;
61785;SDS011;47692;53.714;11.372;2023-03-01T14:50:27;27.80;;;13.68;;
61785;SDS011;47692;53.714;11.372;2023-03-01T14:52:56;27.83;;;12.70;;
61785;SDS011;47692;53.714;11.372;2023-03-01T14:55:33;29.50;;;13.07;;
61785;SDS011;47692;53.714;11.372;2023-03-01T14:58:03;27.70;;;12.40;;
61785;SDS011;47692;53.714;11.372;2023-03-01T15:00:30;30.67;;;13.88;;
61785;SDS011;47692;53.714;11.372;2023-03-01T15:03:00;28.52;;;12.50;;
61785;SDS011;47692;53.714;11.372;2023-03-01T15:05:38;28.70;;;11.77;;
61785;SDS011;47692;53.714;11.372;2023-03-01T15:08:05;25.17;;;10.13;;
61785;SDS011;47692;53.714;11.372;2023-03-01T15:10:32;24.38;;;10.68;;
61785;SDS011;47692;53.714;11.372;2023-03-01T15:13:12;20.88;;;9.70;;
61785;SDS011;47692;53.714;11.372;2023-03-01T15:15:48;22.85;;;10.38;;
61785;SDS011;47692;53.714;11.372;2023-03-01T15:18:20;24.42;;;10.07;;
61785;SDS011;47692;53.714;11.372;2023-03-01T15:20:50;24.70;;;9.90;;
61785;SDS011;47692;53.714;11.372;2023-03-01T15:23:20;27.35;;;11.65;;
61785;SDS011;47692;53.714;11.372;2023-03-01T15:25:51;24.35;;;10.63;;
61785;SDS011;47692;53.714;11.372;2023-03-01T15:28:22;25.45;;;10.15;;
61785;SDS011;47692;53.714;11.372;2023-03-01T15:31:32;26.02;;;11.65;;
61785;SDS011;47692;53.714;11.372;2023-03-01T15:33:45;21.83;;;9.30;;
61785;SDS011;47692;53.714;11.372;2023-03-01T15:39:05;28.17;;;12.10;;
61785;SDS011;47692;53.714;11.372;2023-03-01T15:41:47;26.70;;;10.88;;
61785;SDS011;47692;53.714;11.372;2023-03-01T15:44:14;27.60;;;10.52;;
61785;SDS011;47692;53.714;11.372;2023-03-01T15:46:44;29.70;;;11.85;;
61785;SDS011;47692;53.714;11.372;2023-03-01T15:52:13;19.42;;;9.00;;
61785;SDS011;47692;53.714;11.372;2023-03-01T15:54:47;31.20;;;10.90;;
61785;SDS011;47692;53.714;11.372;2023-03-01T15:57:13;30.60;;;10.65;;
61785;SDS011;47692;53.714;11.372;2023-03-01T15:59:40;23.67;;;10.48;;
61785;SDS011;47692;53.714;11.372;2023-03-01T16:02:09;26.23;;;11.65;;
61785;SDS011;47692;53.714;11.372;2023-03-01T16:04:37;30.80;;;13.20;;
61785;SDS011;47692;53.714;11.372;2023-03-01T16:07:03;25.02;;;11.10;;
61785;SDS011;47692;53.714;11.372;2023-03-01T16:09:28;26.92;;;11.80;;
61785;SDS011;47692;53.714;11.372;2023-03-01T16:11:53;34.75;;;12.23;;
61785;SDS011;47692;53.714;11.372;2023-03-01T16:14:19;28.45;;;12.30;;
61785;SDS011;47692;53.714;11.372;2023-03-01T16:16:45;30.80;;;12.98;;
61785;SDS011;47692;53.714;11.372;2023-03-01T16:19:12;38.75;;;12.60;;
61785;SDS011;47692;53.714;11.372;2023-03-01T16:21:38;32.00;;;13.80;;